Samut Prakan, Thailand
Current Conditions -  °F | °C
As of 10:30 PM on Thursday 30 Oct 2014 (Local Time) from VTBS Reporting Station
Broken Clouds Broken Clouds  
Wind Chill: 84°   Ceiling: 30000
Heat Index: 91°   Visibility: 6mi
Dew Point: 73°   Wind: 0mph
Humidity: 70%   Direction: NA
Pressure: 29.85"   Gusts: NA
Location:  13.61°N, 100.61°E
Report Text: VTBS 301530Z 00000KT 9000 FEW020 BKN300 29/23 Q1011 NOSIG
Loading
Personal Weather Stations






























Interactive Weather Map New forecast layout! Learn more

10-Day Weather Forecast

Advertisements
Track Severe Weather on mobile